createdAt,value
2022-12-25T00:04:21.370Z,31.67
2022-12-25T00:09:24.900Z,20.38
2022-12-25T00:14:27.049Z,22.15
2022-12-25T00:19:29.170Z,55.10
2022-12-25T00:24:32.872Z,73.72
2022-12-25T00:29:35.208Z,50.13
2022-12-25T00:34:37.317Z,55.40
2022-12-25T00:39:40.964Z,59.45
2022-12-25T00:44:43.122Z,98.47
2022-12-25T00:49:45.445Z,77.72
2022-12-25T00:54:48.952Z,85.88
2022-12-25T00:59:51.120Z,121.53
2022-12-25T01:04:54.572Z,115.88
2022-12-25T01:09:58.242Z,56.25
2022-12-25T01:15:00.382Z,89.28
2022-12-25T01:20:02.643Z,83.13
2022-12-25T01:25:07.214Z,68.82
2022-12-25T01:30:10.668Z,55.67
2022-12-25T01:35:12.729Z,53.40
2022-12-25T01:40:16.469Z,55.30
2022-12-25T01:45:35.680Z,71.20
2022-12-25T01:50:39.920Z,46.03
2022-12-25T01:55:45.802Z,36.03
2022-12-25T02:00:48.082Z,23.83
2022-12-25T02:05:51.209Z,28.30
2022-12-25T02:10:54.915Z,26.73
2022-12-25T02:16:04.446Z,26.00
2022-12-25T02:21:24.760Z,29.95
2022-12-25T02:26:52.689Z,28.10
2022-12-25T02:32:01.538Z,36.00
2022-12-25T02:37:11.664Z,39.67
2022-12-25T02:42:17.776Z,35.08
2022-12-25T02:47:23.157Z,31.98
2022-12-25T02:52:27.807Z,41.60
2022-12-25T02:57:35.085Z,33.17
2022-12-25T03:07:43.877Z,39.17
2022-12-25T03:12:53.055Z,33.97
2022-12-25T03:17:59.243Z,26.40
2022-12-25T03:23:02.051Z,37.75
2022-12-25T03:28:06.123Z,38.22
2022-12-25T03:33:43.936Z,31.60
2022-12-25T03:38:49.093Z,31.67
2022-12-25T03:43:57.552Z,35.03
2022-12-25T03:49:09.339Z,35.10
2022-12-25T03:54:13.257Z,35.35
2022-12-25T03:59:23.827Z,33.17
2022-12-25T04:04:28.067Z,29.83
2022-12-25T04:09:30.179Z,30.35
2022-12-25T04:14:32.299Z,33.72
2022-12-25T04:19:35.814Z,30.48
2022-12-25T04:24:37.931Z,30.85
2022-12-25T04:29:40.041Z,37.03
2022-12-25T04:34:43.515Z,27.42
2022-12-25T04:39:45.567Z,26.25
2022-12-25T04:44:47.676Z,30.77
2022-12-25T04:49:51.212Z,33.42
2022-12-25T04:54:53.436Z,29.23
2022-12-25T04:59:55.507Z,24.83
2022-12-25T05:04:59.018Z,22.60
2022-12-25T05:10:01.187Z,31.13
2022-12-25T05:15:03.519Z,21.15
2022-12-25T05:20:08.215Z,29.83
2022-12-25T05:25:10.342Z,31.45
2022-12-25T05:30:12.923Z,23.67
2022-12-25T05:35:16.573Z,29.73
2022-12-25T05:40:18.694Z,26.33
2022-12-25T05:45:20.856Z,29.02
2022-12-25T05:50:24.387Z,34.85
2022-12-25T05:55:26.507Z,24.65
2022-12-25T06:00:28.635Z,23.85
2022-12-25T06:05:32.645Z,24.58
2022-12-25T06:10:34.805Z,32.50
2022-12-25T06:15:39.464Z,34.80
2022-12-25T06:20:43.035Z,23.70
2022-12-25T06:25:45.158Z,31.25
2022-12-25T06:30:47.262Z,28.35
2022-12-25T06:35:50.781Z,39.00
2022-12-25T06:40:52.883Z,35.25
2022-12-25T06:45:55.116Z,32.97
2022-12-25T06:50:58.674Z,23.77
2022-12-25T06:56:03.581Z,28.23
2022-12-25T07:01:08.376Z,34.45
2022-12-25T07:06:12.109Z,26.33
2022-12-25T07:11:14.272Z,28.23
2022-12-25T07:16:16.643Z,29.88
2022-12-25T07:21:21.165Z,33.10
2022-12-25T07:26:23.362Z,28.23
2022-12-25T07:31:25.673Z,36.17
2022-12-25T07:36:29.237Z,31.63
2022-12-25T07:41:31.339Z,37.05
2022-12-25T07:46:33.521Z,37.33
2022-12-25T07:51:37.112Z,32.92
2022-12-25T07:56:39.249Z,31.48
2022-12-25T08:01:41.562Z,43.65
2022-12-25T08:06:45.233Z,32.85
2022-12-25T08:11:48.543Z,46.38
2022-12-25T08:16:50.746Z,44.72
2022-12-25T08:21:54.422Z,35.78
2022-12-25T08:26:56.558Z,35.63
2022-12-25T08:31:58.683Z,37.75
2022-12-25T08:37:02.249Z,43.33
2022-12-25T08:42:04.722Z,33.97
2022-12-25T08:47:06.816Z,35.75
2022-12-25T08:52:10.369Z,39.17
2022-12-25T08:57:12.524Z,34.90
2022-12-25T09:02:16.910Z,30.67
2022-12-25T09:07:20.583Z,29.00
2022-12-25T09:12:22.728Z,28.45
2022-12-25T09:17:24.900Z,29.90
2022-12-25T09:22:28.433Z,29.60
2022-12-25T09:27:30.579Z,22.52
2022-12-25T09:32:32.809Z,27.02
2022-12-25T09:37:36.732Z,28.48
2022-12-25T09:42:39.000Z,24.88
2022-12-25T09:47:44.375Z,22.55
2022-12-25T09:52:55.120Z,21.45
2022-12-25T09:57:58.689Z,22.25
2022-12-25T10:03:19.352Z,20.45
2022-12-25T10:08:37.701Z,23.50
2022-12-25T10:13:56.734Z,22.83
2022-12-25T10:19:10.632Z,25.40
2022-12-25T10:24:24.203Z,36.22
2022-12-25T10:29:33.043Z,26.23
2022-12-25T10:34:37.678Z,19.20
2022-12-25T10:39:46.410Z,20.60
2022-12-25T10:44:57.213Z,23.30
2022-12-25T10:50:01.541Z,18.92
2022-12-25T10:55:16.247Z,21.15
2022-12-25T11:00:23.614Z,22.92
2022-12-25T11:10:32.590Z,18.98
2022-12-25T11:15:38.232Z,17.38
2022-12-25T11:20:48.967Z,20.73
2022-12-25T11:26:00.923Z,16.33
2022-12-25T11:31:08.077Z,15.98
2022-12-25T11:36:22.713Z,15.93
2022-12-25T11:41:32.408Z,15.38
2022-12-25T11:46:41.610Z,95.57
2022-12-25T11:51:47.615Z,17.70
2022-12-25T11:56:51.918Z,14.50
2022-12-25T12:01:58.138Z,17.38
2022-12-25T12:07:04.875Z,18.85
2022-12-25T12:12:16.573Z,16.77
2022-12-25T12:17:19.589Z,12.65
2022-12-25T12:22:24.836Z,18.02
2022-12-25T12:27:35.734Z,14.55
2022-12-25T12:32:41.580Z,16.13
2022-12-25T12:37:46.391Z,22.27
2022-12-25T12:42:50.186Z,16.77
2022-12-25T12:47:53.566Z,16.83
2022-12-25T12:52:55.900Z,15.80
2022-12-25T12:58:01.167Z,11.93
2022-12-25T13:03:32.216Z,13.73
2022-12-25T13:08:46.064Z,10.68
2022-12-25T13:13:52.480Z,17.23
2022-12-25T13:18:56.257Z,12.70
2022-12-25T13:24:00.677Z,20.17
2022-12-25T13:29:09.614Z,14.88
2022-12-25T13:34:23.578Z,20.92
2022-12-25T13:39:25.788Z,31.83
2022-12-25T13:44:42.009Z,36.63
2022-12-25T13:49:44.694Z,20.23
2022-12-25T13:54:59.789Z,24.08
2022-12-25T14:00:06.179Z,15.10
2022-12-25T14:05:25.013Z,10.83
2022-12-25T14:10:29.984Z,13.57
2022-12-25T14:15:35.322Z,12.07
2022-12-25T14:20:40.528Z,12.38
2022-12-25T14:25:45.813Z,14.05
2022-12-25T14:30:49.663Z,11.15
2022-12-25T14:35:52.275Z,12.55
2022-12-25T14:41:01.334Z,11.65
2022-12-25T14:46:07.812Z,10.20
2022-12-25T14:51:17.427Z,11.73
2022-12-25T14:56:22.001Z,19.42
2022-12-25T15:01:30.734Z,27.50
2022-12-25T15:06:33.261Z,13.68
2022-12-25T15:11:35.658Z,11.38
2022-12-25T15:16:45.117Z,12.43
2022-12-25T15:21:47.225Z,10.77
2022-12-25T15:26:49.398Z,11.38
2022-12-25T15:31:53.067Z,12.73
2022-12-25T15:36:55.158Z,11.73
2022-12-25T15:41:57.289Z,10.95
2022-12-25T15:47:00.806Z,9.93
2022-12-25T15:52:03.084Z,12.15
2022-12-25T15:57:14.173Z,13.38
2022-12-25T16:02:20.631Z,12.27
2022-12-25T16:07:24.403Z,14.38
2022-12-25T16:12:27.033Z,13.35
2022-12-25T16:17:30.509Z,14.68
2022-12-25T16:22:32.733Z,16.13
2022-12-25T16:27:34.876Z,14.52
2022-12-25T16:32:38.524Z,21.98
2022-12-25T16:37:40.672Z,18.92
2022-12-25T16:42:42.816Z,17.17
2022-12-25T16:47:46.535Z,11.65
2022-12-25T16:52:48.736Z,15.60
2022-12-25T16:57:51.000Z,15.07
2022-12-25T17:02:55.041Z,35.78
2022-12-25T17:07:57.385Z,12.93
2022-12-25T17:12:59.778Z,11.65
2022-12-25T17:18:04.475Z,10.52
2022-12-25T17:23:06.589Z,11.73
2022-12-25T17:28:08.663Z,14.45
2022-12-25T17:33:12.213Z,13.93
2022-12-25T17:38:14.407Z,16.17
2022-12-25T17:43:20.809Z,11.32
2022-12-25T17:48:24.711Z,12.38
2022-12-25T17:53:26.823Z,11.88
2022-12-25T17:58:29.316Z,15.80
2022-12-25T18:03:33.535Z,11.18
2022-12-25T18:08:39.646Z,15.43
2022-12-25T18:13:42.808Z,19.30
2022-12-25T18:18:51.905Z,22.02
2022-12-25T18:23:54.973Z,13.70
2022-12-25T18:28:57.491Z,13.73
2022-12-25T18:34:01.437Z,14.40
2022-12-25T18:39:05.736Z,12.98
2022-12-25T18:44:08.725Z,14.07
2022-12-25T18:49:12.309Z,15.02
2022-12-25T18:54:15.660Z,15.77
2022-12-25T18:59:20.203Z,14.95
2022-12-25T19:04:24.144Z,17.02
2022-12-25T19:09:27.138Z,18.25
2022-12-25T19:14:31.420Z,42.47
2022-12-25T19:19:52.609Z,27.98
2022-12-25T19:24:55.509Z,22.13
2022-12-25T19:29:58.517Z,39.92
2022-12-25T19:35:03.803Z,31.02
2022-12-25T19:40:08.185Z,31.35
2022-12-25T19:45:11.619Z,35.00
2022-12-25T19:50:16.228Z,22.13
2022-12-25T19:55:18.444Z,27.75
2022-12-25T20:00:20.669Z,22.45
2022-12-25T20:05:24.181Z,36.35
2022-12-25T20:10:26.328Z,25.30
2022-12-25T20:15:28.870Z,26.80
2022-12-25T20:20:32.459Z,25.13
2022-12-25T20:25:34.707Z,22.63
2022-12-25T20:30:38.945Z,26.23
2022-12-25T20:35:47.115Z,41.42
2022-12-25T20:41:25.308Z,27.77
2022-12-25T20:46:11.868Z,28.00
2022-12-25T20:51:17.253Z,19.58
2022-12-25T20:56:21.861Z,20.20
2022-12-25T21:01:24.980Z,20.65
2022-12-25T21:06:28.640Z,17.20
2022-12-25T21:11:30.786Z,17.85
2022-12-25T21:16:33.211Z,18.15
2022-12-25T21:21:37.180Z,18.67
2022-12-25T21:26:44.413Z,17.67
2022-12-25T21:31:49.866Z,16.33
2022-12-25T21:36:53.439Z,15.73
2022-12-25T21:41:55.611Z,17.92
2022-12-25T21:46:57.771Z,16.67
2022-12-25T21:52:01.339Z,15.63
2022-12-25T21:57:03.713Z,16.38
2022-12-25T22:02:06.141Z,21.58
2022-12-25T22:07:13.141Z,23.27
2022-12-25T22:12:17.120Z,45.80
2022-12-25T22:17:20.202Z,78.90
2022-12-25T22:22:25.989Z,75.85
2022-12-25T22:27:31.679Z,75.45
2022-12-25T22:32:34.110Z,25.65
2022-12-25T22:37:38.170Z,30.67
2022-12-25T22:42:40.436Z,22.38
2022-12-25T22:47:42.631Z,24.25
2022-12-25T22:52:46.273Z,22.05
2022-12-25T22:57:48.461Z,18.42
2022-12-25T23:02:50.771Z,20.75
2022-12-25T23:07:54.452Z,22.67
2022-12-25T23:12:56.616Z,23.17
2022-12-25T23:17:58.817Z,23.15
2022-12-25T23:23:02.476Z,21.13
2022-12-25T23:28:04.866Z,18.27
2022-12-25T23:33:07.210Z,16.10
2022-12-25T23:38:10.738Z,16.98
2022-12-25T23:43:12.990Z,17.67
2022-12-25T23:48:15.174Z,20.33
2022-12-25T23:53:18.741Z,17.25
2022-12-25T23:58:20.873Z,14.95
